createdAt,value
2023-03-04T00:02:05.896Z,6.00
2023-03-04T00:05:14.102Z,6.10
2023-03-04T00:08:16.282Z,6.00
2023-03-04T00:11:22.209Z,6.00
2023-03-04T00:14:24.535Z,5.90
2023-03-04T00:17:53.866Z,5.90
2023-03-04T00:20:56.359Z,5.90
2023-03-04T00:23:59.014Z,5.90
2023-03-04T00:27:02.084Z,5.90
2023-03-04T00:30:05.736Z,6.00
2023-03-04T00:33:15.532Z,6.00
2023-03-04T00:36:17.691Z,6.00
2023-03-04T00:39:20.016Z,5.90
2023-03-04T00:42:22.314Z,5.90
2023-03-04T00:45:24.174Z,6.00
2023-03-04T00:48:26.829Z,6.00
2023-03-04T00:51:28.897Z,7.30
2023-03-04T00:54:30.920Z,6.00
2023-03-04T00:57:35.786Z,5.90
2023-03-04T01:00:43.939Z,5.90
2023-03-04T01:03:45.689Z,5.90
2023-03-04T01:06:47.392Z,6.00
2023-03-04T01:09:49.184Z,6.10
2023-03-04T01:12:50.924Z,5.90
2023-03-04T01:15:52.649Z,5.90
2023-03-04T01:18:54.377Z,5.90
2023-03-04T01:21:56.080Z,5.90
2023-03-04T01:24:57.806Z,5.90
2023-03-04T01:28:00.899Z,5.90
2023-03-04T01:31:04.081Z,5.80
2023-03-04T01:34:05.985Z,5.90
2023-03-04T01:37:07.846Z,5.80
2023-03-04T01:40:10.403Z,5.90
2023-03-04T01:43:20.290Z,5.90
2023-03-04T01:46:22.648Z,5.80
2023-03-04T01:49:24.867Z,5.80
2023-03-04T01:52:27.731Z,5.90
2023-03-04T01:55:31.125Z,5.90
2023-03-04T01:58:33.145Z,5.80
2023-03-04T02:01:35.916Z,5.80
2023-03-04T02:04:41.705Z,5.90
2023-03-04T02:07:43.787Z,5.90
2023-03-04T02:10:46.323Z,5.90
2023-03-04T02:13:48.184Z,5.90
2023-03-04T02:16:51.143Z,5.80
2023-03-04T02:19:59.464Z,5.90
2023-03-04T02:23:11.645Z,5.80
2023-03-04T02:26:18.979Z,5.90
2023-03-04T02:29:23.480Z,5.90
2023-03-04T02:32:25.469Z,5.80
2023-03-04T02:35:27.679Z,5.70
2023-03-04T02:38:29.462Z,5.80
2023-03-04T02:41:31.585Z,5.80
2023-03-04T02:44:37.002Z,5.80
2023-03-04T02:47:38.817Z,5.80
2023-03-04T02:50:49.744Z,5.70
2023-03-04T02:53:51.529Z,5.80
2023-03-04T02:56:56.810Z,5.80
2023-03-04T02:59:59.593Z,5.70
2023-03-04T03:03:03.000Z,5.80
2023-03-04T03:06:05.134Z,5.80
2023-03-04T03:09:07.318Z,5.80
2023-03-04T03:12:09.205Z,5.80
2023-03-04T03:15:11.423Z,5.80
2023-03-04T03:18:13.421Z,5.70
2023-03-04T03:21:17.668Z,5.70
2023-03-04T03:24:20.368Z,5.70
2023-03-04T03:27:22.192Z,5.70
2023-03-04T03:30:25.417Z,5.80
2023-03-04T03:33:27.286Z,5.70
2023-03-04T03:36:29.108Z,5.70
2023-03-04T03:39:31.000Z,5.70
2023-03-04T03:42:32.750Z,5.70
2023-03-04T03:45:34.656Z,5.70
2023-03-04T03:48:36.410Z,5.80
2023-03-04T03:51:38.312Z,5.80
2023-03-04T03:54:40.509Z,5.80
2023-03-04T03:57:42.378Z,5.70
2023-03-04T04:00:44.215Z,5.80
2023-03-04T04:03:46.110Z,5.70
2023-03-04T04:06:47.904Z,5.70
2023-03-04T04:09:49.711Z,5.70
2023-03-04T04:12:51.498Z,5.70
2023-03-04T04:15:54.251Z,5.70
2023-03-04T04:18:56.023Z,5.80
2023-03-04T04:21:57.821Z,5.70
2023-03-04T04:24:59.629Z,5.60
2023-03-04T04:28:01.392Z,5.60
2023-03-04T04:31:06.716Z,5.60
2023-03-04T04:34:08.677Z,5.70
2023-03-04T04:37:10.400Z,5.60
2023-03-04T04:40:12.631Z,5.60
2023-03-04T04:43:14.461Z,5.60
2023-03-04T04:46:17.095Z,5.60
2023-03-04T04:49:18.922Z,5.60
2023-03-04T04:52:20.713Z,5.60
2023-03-04T04:55:22.498Z,5.70
2023-03-04T04:58:24.308Z,5.60
2023-03-04T05:01:26.703Z,5.60
2023-03-04T05:04:28.624Z,5.70
2023-03-04T05:07:30.600Z,5.60
2023-03-04T05:10:32.362Z,5.70
2023-03-04T05:13:34.180Z,5.60
2023-03-04T05:16:36.289Z,5.70
2023-03-04T05:19:38.167Z,5.60
2023-03-04T05:22:40.096Z,5.60
2023-03-04T05:25:41.891Z,5.70
2023-03-04T05:28:44.375Z,5.60
2023-03-04T05:31:46.137Z,5.60
2023-03-04T05:34:47.863Z,5.60
2023-03-04T05:37:49.547Z,5.60
2023-03-04T05:40:58.303Z,5.60
2023-03-04T05:44:00.260Z,5.60
2023-03-04T05:47:02.101Z,5.60
2023-03-04T05:50:03.961Z,5.60
2023-03-04T05:53:05.799Z,5.60
2023-03-04T05:56:09.742Z,5.70
2023-03-04T05:59:11.424Z,5.70
2023-03-04T06:02:13.398Z,5.60
2023-03-04T06:05:15.749Z,5.60
2023-03-04T06:08:17.542Z,5.50
2023-03-04T06:11:19.431Z,5.50
2023-03-04T06:14:21.167Z,5.60
2023-03-04T06:17:22.893Z,5.60
2023-03-04T06:20:24.603Z,5.60
2023-03-04T06:23:27.190Z,5.60
2023-03-04T06:26:28.911Z,5.50
2023-03-04T06:29:30.948Z,5.50
2023-03-04T06:32:32.693Z,5.50
2023-03-04T06:35:34.519Z,5.50
2023-03-04T06:38:36.283Z,5.50
2023-03-04T06:41:38.236Z,5.50
2023-03-04T06:44:40.114Z,5.50
2023-03-04T06:47:41.855Z,5.40
2023-03-04T06:50:43.575Z,5.60
2023-03-04T06:53:46.051Z,5.60
2023-03-04T06:56:47.755Z,5.50
2023-03-04T06:59:49.431Z,5.50
2023-03-04T07:02:52.551Z,5.50
2023-03-04T07:05:55.769Z,5.50
2023-03-04T07:08:58.263Z,5.50
2023-03-04T07:11:59.999Z,5.60
2023-03-04T07:15:01.900Z,5.60
2023-03-04T07:18:03.668Z,5.60
2023-03-04T07:21:06.132Z,5.60
2023-03-04T07:24:07.894Z,5.60
2023-03-04T07:27:09.577Z,5.70
2023-03-04T07:30:11.866Z,5.60
2023-03-04T07:33:14.413Z,5.70
2023-03-04T07:36:16.212Z,5.70
2023-03-04T07:39:18.071Z,5.70
2023-03-04T07:42:19.838Z,5.90
2023-03-04T07:45:28.481Z,5.90
2023-03-04T07:48:30.481Z,6.10
2023-03-04T07:51:32.197Z,6.10
2023-03-04T07:54:33.980Z,6.10
2023-03-04T07:57:35.834Z,6.10
2023-03-04T08:00:37.522Z,6.20
2023-03-04T08:03:39.707Z,6.20
2023-03-04T08:06:43.110Z,6.20
2023-03-04T08:09:44.813Z,6.30
2023-03-04T08:12:46.515Z,6.30
2023-03-04T08:15:48.329Z,6.30
2023-03-04T08:18:52.852Z,6.40
2023-03-04T08:21:54.668Z,6.40
2023-03-04T08:24:56.376Z,6.40
2023-03-04T08:27:59.158Z,6.40
2023-03-04T08:31:00.919Z,6.40
2023-03-04T08:34:04.203Z,6.50
2023-03-04T08:37:06.037Z,6.30
2023-03-04T08:40:08.342Z,6.30
2023-03-04T08:43:10.424Z,6.30
2023-03-04T08:46:12.210Z,6.40
2023-03-04T08:49:14.527Z,6.50
2023-03-04T08:52:16.343Z,6.30
2023-03-04T08:55:18.178Z,6.50
2023-03-04T08:58:20.180Z,6.80
2023-03-04T09:01:22.020Z,6.70
2023-03-04T09:04:24.493Z,6.80
2023-03-04T09:07:26.251Z,6.80
2023-03-04T09:10:28.270Z,6.80
2023-03-04T09:13:31.617Z,6.70
2023-03-04T09:16:33.359Z,6.80
2023-03-04T09:19:35.081Z,6.90
2023-03-04T09:22:41.895Z,6.90
2023-03-04T09:25:44.797Z,6.90
2023-03-04T09:28:49.207Z,7.10
2023-03-04T09:31:50.876Z,7.20
2023-03-04T09:34:52.573Z,7.20
2023-03-04T09:37:54.353Z,7.10
2023-03-04T09:41:05.853Z,7.10
2023-03-04T09:44:32.909Z,7.20
2023-03-04T09:47:36.818Z,7.10
2023-03-04T09:50:44.175Z,7.30
2023-03-04T09:54:14.892Z,7.20
2023-03-04T09:57:43.155Z,7.10
2023-03-04T10:00:51.242Z,7.20
2023-03-04T10:03:59.018Z,7.10
2023-03-04T10:07:03.133Z,6.90
2023-03-04T10:10:16.614Z,6.90
2023-03-04T10:13:32.193Z,7.00
2023-03-04T10:16:45.134Z,6.80
2023-03-04T10:20:01.137Z,6.70
2023-03-04T10:23:11.435Z,6.60
2023-03-04T10:26:17.189Z,6.90
2023-03-04T10:29:22.148Z,7.10
2023-03-04T10:32:23.929Z,7.10
2023-03-04T10:35:32.658Z,7.40
2023-03-04T10:38:41.611Z,7.60
2023-03-04T10:41:46.369Z,7.40
2023-03-04T10:45:00.056Z,7.30
2023-03-04T10:48:02.292Z,7.10
2023-03-04T10:51:25.590Z,7.10
2023-03-04T10:54:52.249Z,7.00
2023-03-04T10:58:05.677Z,6.80
2023-03-04T11:01:16.538Z,6.80
2023-03-04T11:04:18.833Z,7.00
2023-03-04T11:07:22.868Z,6.90
2023-03-04T11:10:36.163Z,7.10
2023-03-04T11:13:38.016Z,7.10
2023-03-04T11:16:39.779Z,7.10
2023-03-04T11:19:45.077Z,7.10
2023-03-04T11:22:47.197Z,6.90
2023-03-04T11:25:55.028Z,7.00
2023-03-04T11:29:22.551Z,7.10
2023-03-04T11:32:31.571Z,7.30
2023-03-04T11:35:54.013Z,7.20
2023-03-04T11:38:57.004Z,7.20
2023-03-04T11:42:37.945Z,7.40
2023-03-04T11:45:56.242Z,7.40
2023-03-04T11:49:11.343Z,7.20
2023-03-04T11:52:47.572Z,7.00
2023-03-04T11:56:21.076Z,7.10
2023-03-04T11:59:46.872Z,7.30
2023-03-04T12:03:26.531Z,7.40
2023-03-04T12:06:44.268Z,7.50
2023-03-04T12:09:53.384Z,7.40
2023-03-04T12:13:16.996Z,7.60
2023-03-04T12:16:19.312Z,7.90
2023-03-04T12:19:47.054Z,8.00
2023-03-04T12:23:13.429Z,8.10
2023-03-04T12:26:33.017Z,8.10
2023-03-04T12:29:46.064Z,8.30
2023-03-04T12:33:03.697Z,8.00
2023-03-04T12:36:28.467Z,8.10
2023-03-04T12:40:11.926Z,8.00
2023-03-04T12:43:47.705Z,7.80
2023-03-04T12:47:16.481Z,7.70
2023-03-04T12:50:41.795Z,8.30
2023-03-04T12:54:03.657Z,7.70
2023-03-04T12:57:15.221Z,7.60
2023-03-04T13:00:38.209Z,8.00
2023-03-04T13:03:55.223Z,8.10
2023-03-04T13:07:21.852Z,8.50
2023-03-04T13:10:23.755Z,8.80
2023-03-04T13:13:38.461Z,9.10
2023-03-04T13:16:43.812Z,9.10
2023-03-04T13:19:52.705Z,8.80
2023-03-04T13:23:09.729Z,8.50
2023-03-04T13:26:18.272Z,8.40
2023-03-04T13:29:25.989Z,8.20
2023-03-04T13:32:38.477Z,8.10
2023-03-04T13:35:49.401Z,8.00
2023-03-04T13:39:00.503Z,7.90
2023-03-04T13:42:03.651Z,8.00
2023-03-04T13:45:30.633Z,7.90
2023-03-04T13:48:36.414Z,7.90
2023-03-04T13:51:46.082Z,7.90
2023-03-04T13:54:47.794Z,8.00
2023-03-04T13:57:51.009Z,7.90
2023-03-04T14:00:54.677Z,7.90
2023-03-04T14:03:56.515Z,7.90
2023-03-04T14:07:00.545Z,7.80
2023-03-04T14:10:08.491Z,7.60
2023-03-04T14:13:11.165Z,7.70
2023-03-04T14:16:18.994Z,8.00
2023-03-04T14:19:54.675Z,8.00
2023-03-04T14:22:58.236Z,8.10
2023-03-04T14:26:14.916Z,8.30
2023-03-04T14:29:29.300Z,8.50
2023-03-04T14:32:31.561Z,8.30
2023-03-04T14:35:33.765Z,8.20
2023-03-04T14:38:38.494Z,8.40
2023-03-04T14:41:43.122Z,8.50
2023-03-04T14:44:49.019Z,8.60
2023-03-04T14:47:54.437Z,8.70
2023-03-04T14:50:58.154Z,8.60
2023-03-04T14:53:59.987Z,8.60
2023-03-04T14:57:22.095Z,8.70
2023-03-04T15:00:29.057Z,8.50
2023-03-04T15:03:32.160Z,8.40
2023-03-04T15:06:54.270Z,8.40
2023-03-04T15:09:56.277Z,8.30
2023-03-04T15:13:01.478Z,8.20
2023-03-04T15:16:03.399Z,8.20
2023-03-04T15:19:23.604Z,8.20
2023-03-04T15:22:25.285Z,8.10
2023-03-04T15:25:28.619Z,8.10
2023-03-04T15:28:34.915Z,8.00
2023-03-04T15:31:36.637Z,8.00
2023-03-04T15:34:38.312Z,8.00
2023-03-04T15:37:41.420Z,8.00
2023-03-04T15:40:43.342Z,8.00
2023-03-04T15:43:45.078Z,8.10
2023-03-04T15:46:46.803Z,8.00
2023-03-04T15:49:48.465Z,7.90
2023-03-04T15:52:51.275Z,8.00
2023-03-04T15:55:53.447Z,7.80
2023-03-04T15:59:10.428Z,7.90
2023-03-04T16:02:19.373Z,7.80
2023-03-04T16:05:23.825Z,7.80
2023-03-04T16:08:25.620Z,7.80
2023-03-04T16:11:30.069Z,7.70
2023-03-04T16:14:31.745Z,7.70
2023-03-04T16:17:33.454Z,7.70
2023-03-04T16:20:36.611Z,7.70
2023-03-04T16:23:43.721Z,7.60
2023-03-04T16:26:45.924Z,7.50
2023-03-04T16:29:47.894Z,7.50
2023-03-04T16:32:49.877Z,7.60
2023-03-04T16:35:52.242Z,7.50
2023-03-04T16:38:59.679Z,7.50
2023-03-04T16:42:02.525Z,7.40
2023-03-04T16:45:04.543Z,7.50
2023-03-04T16:48:06.235Z,7.40
2023-03-04T16:51:15.425Z,7.40
2023-03-04T16:54:23.205Z,7.40
2023-03-04T16:57:28.290Z,7.30
2023-03-04T17:00:30.056Z,7.30
2023-03-04T17:03:31.835Z,7.20
2023-03-04T17:06:36.190Z,7.30
2023-03-04T17:09:37.995Z,7.20
2023-03-04T17:12:40.040Z,7.20
2023-03-04T17:15:46.768Z,7.10
2023-03-04T17:18:49.105Z,7.10
2023-03-04T17:21:50.816Z,7.10
2023-03-04T17:24:52.467Z,7.10
2023-03-04T17:27:54.161Z,7.00
2023-03-04T17:30:55.868Z,6.90
2023-03-04T17:33:57.596Z,6.90
2023-03-04T17:36:59.494Z,6.90
2023-03-04T17:40:04.496Z,6.80
2023-03-04T17:43:11.243Z,6.80
2023-03-04T17:46:17.552Z,6.80
2023-03-04T17:49:19.427Z,6.70
2023-03-04T17:52:21.345Z,6.70
2023-03-04T17:55:23.028Z,6.60
2023-03-04T17:58:24.736Z,6.70
2023-03-04T18:01:27.498Z,6.60
2023-03-04T18:04:29.261Z,6.60
2023-03-04T18:07:30.984Z,6.60
2023-03-04T18:10:32.708Z,6.60
2023-03-04T18:13:36.732Z,6.60
2023-03-04T18:16:38.971Z,6.60
2023-03-04T18:19:40.657Z,6.60
2023-03-04T18:22:43.177Z,6.60
2023-03-04T18:25:44.863Z,6.60
2023-03-04T18:28:46.592Z,6.50
2023-03-04T18:31:48.331Z,6.50
2023-03-04T18:34:50.218Z,6.60
2023-03-04T18:37:51.960Z,6.50
2023-03-04T18:41:01.887Z,6.50
2023-03-04T18:44:04.890Z,6.50
2023-03-04T18:47:06.912Z,6.50
2023-03-04T18:50:10.003Z,6.50
2023-03-04T18:53:11.701Z,6.40
2023-03-04T18:56:18.311Z,6.30
2023-03-04T18:59:42.835Z,6.20
2023-03-04T19:02:52.429Z,6.30
2023-03-04T19:05:55.232Z,6.30
2023-03-04T19:08:57.110Z,6.30
2023-03-04T19:11:58.818Z,6.40
2023-03-04T19:15:00.856Z,6.20
2023-03-04T19:18:02.581Z,6.20
2023-03-04T19:21:05.446Z,6.20
2023-03-04T19:24:08.060Z,6.20
2023-03-04T19:27:09.743Z,6.20
2023-03-04T19:30:11.993Z,6.20
2023-03-04T19:33:14.079Z,6.20
2023-03-04T19:36:15.911Z,6.10
2023-03-04T19:39:18.509Z,6.20
2023-03-04T19:42:20.246Z,6.20
2023-03-04T19:45:22.379Z,6.20
2023-03-04T19:48:24.420Z,6.10
2023-03-04T19:51:26.870Z,6.20
2023-03-04T19:54:29.295Z,6.20
2023-03-04T19:57:32.333Z,6.20
2023-03-04T20:00:35.742Z,6.20
2023-03-04T20:03:37.468Z,6.20
2023-03-04T20:06:42.122Z,6.00
2023-03-04T20:09:43.871Z,6.00
2023-03-04T20:12:45.560Z,6.00
2023-03-04T20:15:47.290Z,6.00
2023-03-04T20:18:49.065Z,5.90
2023-03-04T20:21:50.772Z,5.90
2023-03-04T20:24:54.782Z,5.90
2023-03-04T20:27:57.479Z,5.90
2023-03-04T20:31:11.824Z,5.80
2023-03-04T20:34:14.049Z,5.80
2023-03-04T20:37:15.765Z,5.80
2023-03-04T20:40:17.744Z,5.70
2023-03-04T20:43:19.426Z,5.70
2023-03-04T20:46:39.090Z,5.70
2023-03-04T20:49:41.223Z,5.70
2023-03-04T20:52:42.954Z,5.60
2023-03-04T20:55:44.696Z,5.70
2023-03-04T20:58:46.480Z,5.70
2023-03-04T21:01:48.570Z,5.60
2023-03-04T21:04:50.519Z,5.60
2023-03-04T21:07:52.272Z,5.60
2023-03-04T21:10:53.998Z,5.60
2023-03-04T21:13:57.583Z,5.60
2023-03-04T21:17:01.791Z,5.60
2023-03-04T21:20:04.388Z,5.60
2023-03-04T21:23:06.437Z,5.60
2023-03-04T21:26:08.223Z,5.60
2023-03-04T21:29:09.913Z,5.60
2023-03-04T21:32:23.904Z,5.50
2023-03-04T21:35:26.731Z,5.50
2023-03-04T21:38:28.586Z,5.40
2023-03-04T21:41:31.997Z,5.50
2023-03-04T21:44:48.504Z,5.60
2023-03-04T21:47:51.241Z,5.60
2023-03-04T21:50:55.706Z,5.50
2023-03-04T21:53:57.892Z,5.40
2023-03-04T21:56:59.651Z,5.50
2023-03-04T22:00:01.399Z,5.40
2023-03-04T22:03:13.489Z,5.40
2023-03-04T22:06:16.389Z,5.40
2023-03-04T22:09:18.376Z,5.40
2023-03-04T22:12:20.365Z,5.40
2023-03-04T22:15:22.213Z,5.40
2023-03-04T22:18:25.275Z,5.40
2023-03-04T22:21:27.033Z,5.40
2023-03-04T22:24:28.807Z,5.40
2023-03-04T22:27:30.646Z,5.30
2023-03-04T22:30:33.523Z,5.40
2023-03-04T22:33:37.155Z,5.30
2023-03-04T22:36:42.024Z,5.40
2023-03-04T22:39:43.743Z,5.40
2023-03-04T22:42:47.040Z,5.40
2023-03-04T22:45:49.038Z,5.30
2023-03-04T22:48:52.516Z,5.30
2023-03-04T22:51:54.270Z,5.20
2023-03-04T22:54:55.981Z,5.30
2023-03-04T22:57:57.690Z,5.20
2023-03-04T23:00:59.583Z,5.30
2023-03-04T23:04:01.579Z,5.20
2023-03-04T23:07:03.405Z,5.20
2023-03-04T23:10:07.117Z,5.10
2023-03-04T23:13:08.869Z,5.20
2023-03-04T23:16:12.089Z,5.20
2023-03-04T23:19:15.797Z,5.20
2023-03-04T23:22:17.567Z,5.20
2023-03-04T23:25:19.481Z,5.20
2023-03-04T23:28:21.330Z,5.20
2023-03-04T23:31:23.221Z,5.30
2023-03-04T23:34:25.006Z,5.20
2023-03-04T23:37:26.738Z,5.10
2023-03-04T23:40:28.745Z,5.20
2023-03-04T23:43:31.814Z,5.30
2023-03-04T23:46:34.318Z,5.10
2023-03-04T23:49:36.075Z,5.10
2023-03-04T23:52:37.811Z,5.00
2023-03-04T23:55:41.538Z,4.80
2023-03-04T23:58:44.038Z,4.70
